sensor_id;sensor_type;location;lat;lon;timestamp;pressure;altitude;pressure_sealevel;temperature;humidity
9717;BME280;4897;43.570;27.832;2024-01-25T00:00:11;99192.00;;;3.10;100.00
9717;BME280;4897;43.570;27.832;2024-01-25T00:02:38;99200.06;;;3.07;100.00
9717;BME280;4897;43.570;27.832;2024-01-25T00:05:11;99190.13;;;3.12;100.00
9717;BME280;4897;43.570;27.832;2024-01-25T00:07:46;99187.59;;;3.10;100.00
9717;BME280;4897;43.570;27.832;2024-01-25T00:10:13;99178.03;;;3.08;100.00
9717;BME280;4897;43.570;27.832;2024-01-25T00:12:40;99182.34;;;3.09;100.00
9717;BME280;4897;43.570;27.832;2024-01-25T00:15:08;99110.34;;;2.74;100.00
9717;BME280;4897;43.570;27.832;2024-01-25T00:17:35;99184.50;;;3.18;100.00
9717;BME280;4897;43.570;27.832;2024-01-25T00:20:08;99173.25;;;3.14;100.00
9717;BME280;4897;43.570;27.832;2024-01-25T00:22:35;99168.13;;;3.11;100.00
9717;BME280;4897;43.570;27.832;2024-01-25T00:25:05;99157.81;;;3.07;100.00
9717;BME280;4897;43.570;27.832;2024-01-25T00:27:35;99181.97;;;3.16;100.00
9717;BME280;4897;43.570;27.832;2024-01-25T00:30:02;99181.09;;;3.16;100.00
9717;BME280;4897;43.570;27.832;2024-01-25T00:32:31;99181.97;;;3.16;100.00
9717;BME280;4897;43.570;27.832;2024-01-25T00:34:59;99177.53;;;3.17;100.00
9717;BME280;4897;43.570;27.832;2024-01-25T00:37:26;99153.00;;;3.15;100.00
9717;BME280;4897;43.570;27.832;2024-01-25T00:39:54;99156.22;;;3.20;100.00
9717;BME280;4897;43.570;27.832;2024-01-25T00:42:23;99126.47;;;3.01;100.00
9717;BME280;4897;43.570;27.832;2024-01-25T00:44:50;99135.75;;;3.08;100.00
9717;BME280;4897;43.570;27.832;2024-01-25T00:47:21;99134.22;;;3.04;100.00
9717;BME280;4897;43.570;27.832;2024-01-25T00:49:54;99159.28;;;3.12;100.00
9717;BME280;4897;43.570;27.832;2024-01-25T00:52:22;99142.41;;;2.99;100.00
9717;BME280;4897;43.570;27.832;2024-01-25T00:54:50;99135.47;;;2.97;100.00
9717;BME280;4897;43.570;27.832;2024-01-25T00:57:17;99136.44;;;3.11;100.00
9717;BME280;4897;43.570;27.832;2024-01-25T00:59:46;99138.31;;;3.09;100.00
9717;BME280;4897;43.570;27.832;2024-01-25T01:02:14;99102.00;;;3.13;100.00
9717;BME280;4897;43.570;27.832;2024-01-25T01:04:41;99116.94;;;3.14;100.00
9717;BME280;4897;43.570;27.832;2024-01-25T01:07:11;99080.28;;;3.08;100.00
9717;BME280;4897;43.570;27.832;2024-01-25T01:09:41;99096.06;;;3.25;100.00
9717;BME280;4897;43.570;27.832;2024-01-25T01:12:08;98937.47;;;2.34;100.00
9717;BME280;4897;43.570;27.832;2024-01-25T01:14:35;99071.84;;;3.17;100.00
9717;BME280;4897;43.570;27.832;2024-01-25T01:17:04;99077.31;;;3.14;100.00
9717;BME280;4897;43.570;27.832;2024-01-25T01:19:31;99074.06;;;3.09;100.00
9717;BME280;4897;43.570;27.832;2024-01-25T01:21:58;99074.25;;;3.06;100.00
9717;BME280;4897;43.570;27.832;2024-01-25T01:24:24;99063.31;;;2.96;100.00
9717;BME280;4897;43.570;27.832;2024-01-25T01:26:51;99068.44;;;2.99;100.00
9717;BME280;4897;43.570;27.832;2024-01-25T01:29:18;99055.06;;;2.87;100.00
9717;BME280;4897;43.570;27.832;2024-01-25T01:31:45;99046.81;;;2.77;100.00
9717;BME280;4897;43.570;27.832;2024-01-25T01:34:14;99065.63;;;2.87;100.00
9717;BME280;4897;43.570;27.832;2024-01-25T01:36:43;99042.03;;;2.68;100.00
9717;BME280;4897;43.570;27.832;2024-01-25T01:39:10;99060.44;;;2.85;100.00
9717;BME280;4897;43.570;27.832;2024-01-25T01:41:37;99062.13;;;2.86;100.00
9717;BME280;4897;43.570;27.832;2024-01-25T01:44:06;99053.38;;;3.01;100.00
9717;BME280;4897;43.570;27.832;2024-01-25T01:46:35;99037.84;;;3.11;100.00
9717;BME280;4897;43.570;27.832;2024-01-25T01:49:02;99035.91;;;3.14;100.00
9717;BME280;4897;43.570;27.832;2024-01-25T01:51:32;98999.16;;;3.10;100.00
9717;BME280;4897;43.570;27.832;2024-01-25T01:54:00;99023.34;;;3.18;100.00
9717;BME280;4897;43.570;27.832;2024-01-25T01:56:28;99019.78;;;3.19;100.00
9717;BME280;4897;43.570;27.832;2024-01-25T01:58:57;99016.44;;;3.31;100.00
9717;BME280;4897;43.570;27.832;2024-01-25T02:01:24;99020.97;;;3.29;100.00
9717;BME280;4897;43.570;27.832;2024-01-25T02:03:51;99001.09;;;3.22;100.00
9717;BME280;4897;43.570;27.832;2024-01-25T02:06:18;99014.47;;;3.35;100.00
9717;BME280;4897;43.570;27.832;2024-01-25T02:08:47;99015.06;;;3.40;100.00
9717;BME280;4897;43.570;27.832;2024-01-25T02:11:15;99004.78;;;3.49;100.00
9717;BME280;4897;43.570;27.832;2024-01-25T02:13:42;98983.59;;;3.35;100.00
9717;BME280;4897;43.570;27.832;2024-01-25T02:16:09;98994.97;;;3.51;100.00
9717;BME280;4897;43.570;27.832;2024-01-25T02:18:36;98973.06;;;3.49;100.00
9717;BME280;4897;43.570;27.832;2024-01-25T02:21:03;98942.13;;;3.21;100.00
9717;BME280;4897;43.570;27.832;2024-01-25T02:23:31;98964.97;;;3.52;100.00
9717;BME280;4897;43.570;27.832;2024-01-25T02:25:58;98976.31;;;3.54;100.00
9717;BME280;4897;43.570;27.832;2024-01-25T02:28:25;98980.13;;;3.49;100.00
9717;BME280;4897;43.570;27.832;2024-01-25T02:30:52;98775.78;;;2.32;100.00
9717;BME280;4897;43.570;27.832;2024-01-25T02:33:19;98938.44;;;3.24;100.00
9717;BME280;4897;43.570;27.832;2024-01-25T02:35:46;98943.59;;;3.41;100.00
9717;BME280;4897;43.570;27.832;2024-01-25T02:38:13;98978.22;;;3.66;100.00
9717;BME280;4897;43.570;27.832;2024-01-25T02:40:41;98971.63;;;3.73;100.00
9717;BME280;4897;43.570;27.832;2024-01-25T02:43:08;98974.94;;;3.91;100.00
9717;BME280;4897;43.570;27.832;2024-01-25T02:45:35;98970.50;;;3.91;100.00
9717;BME280;4897;43.570;27.832;2024-01-25T02:48:08;98939.63;;;3.92;100.00
9717;BME280;4897;43.570;27.832;2024-01-25T02:50:35;98961.78;;;4.18;100.00
9717;BME280;4897;43.570;27.832;2024-01-25T02:53:02;98941.41;;;4.05;100.00
9717;BME280;4897;43.570;27.832;2024-01-25T02:55:28;98931.16;;;4.28;100.00
9717;BME280;4897;43.570;27.832;2024-01-25T02:57:57;98960.63;;;4.50;100.00
9717;BME280;4897;43.570;27.832;2024-01-25T03:00:24;98962.16;;;4.54;100.00
9717;BME280;4897;43.570;27.832;2024-01-25T03:02:51;98966.13;;;4.61;100.00
9717;BME280;4897;43.570;27.832;2024-01-25T03:05:18;98955.31;;;4.64;100.00
9717;BME280;4897;43.570;27.832;2024-01-25T03:07:45;98947.53;;;4.75;100.00
9717;BME280;4897;43.570;27.832;2024-01-25T03:10:12;98949.44;;;4.73;100.00
9717;BME280;4897;43.570;27.832;2024-01-25T03:12:39;98943.09;;;4.75;100.00
9717;BME280;4897;43.570;27.832;2024-01-25T03:15:09;98929.69;;;4.64;100.00
9717;BME280;4897;43.570;27.832;2024-01-25T03:17:36;98938.16;;;4.69;100.00
9717;BME280;4897;43.570;27.832;2024-01-25T03:20:04;98950.72;;;4.80;100.00
9717;BME280;4897;43.570;27.832;2024-01-25T03:22:31;98766.72;;;3.38;100.00
9717;BME280;4897;43.570;27.832;2024-01-25T03:24:58;98929.09;;;4.73;100.00
9717;BME280;4897;43.570;27.832;2024-01-25T03:27:25;98961.59;;;4.90;100.00
9717;BME280;4897;43.570;27.832;2024-01-25T03:29:52;98947.38;;;4.91;100.00
9717;BME280;4897;43.570;27.832;2024-01-25T03:32:20;98921.56;;;4.80;100.00
9717;BME280;4897;43.570;27.832;2024-01-25T03:34:47;98921.03;;;4.75;100.00
9717;BME280;4897;43.570;27.832;2024-01-25T03:37:14;98932.09;;;4.81;100.00
9717;BME280;4897;43.570;27.832;2024-01-25T03:39:41;98925.13;;;4.93;100.00
9717;BME280;4897;43.570;27.832;2024-01-25T03:42:08;98917.13;;;4.80;100.00
9717;BME280;4897;43.570;27.832;2024-01-25T03:44:35;98954.22;;;5.07;100.00
9717;BME280;4897;43.570;27.832;2024-01-25T03:47:03;98951.44;;;4.96;100.00
9717;BME280;4897;43.570;27.832;2024-01-25T03:49:31;98928.03;;;4.76;100.00
9717;BME280;4897;43.570;27.832;2024-01-25T03:51:58;98961.81;;;4.99;100.00
9717;BME280;4897;43.570;27.832;2024-01-25T03:54:25;98964.53;;;4.85;100.00
9717;BME280;4897;43.570;27.832;2024-01-25T03:56:52;98958.59;;;4.81;100.00
9717;BME280;4897;43.570;27.832;2024-01-25T03:59:19;98933.47;;;4.60;100.00
9717;BME280;4897;43.570;27.832;2024-01-25T04:01:46;98952.16;;;4.71;100.00
9717;BME280;4897;43.570;27.832;2024-01-25T04:04:13;98945.56;;;4.64;100.00
9717;BME280;4897;43.570;27.832;2024-01-25T04:06:43;98955.66;;;4.72;100.00
9717;BME280;4897;43.570;27.832;2024-01-25T04:09:11;98962.50;;;4.62;100.00
9717;BME280;4897;43.570;27.832;2024-01-25T04:11:38;98940.22;;;4.52;100.00
9717;BME280;4897;43.570;27.832;2024-01-25T04:14:05;98940.16;;;4.66;100.00
9717;BME280;4897;43.570;27.832;2024-01-25T04:16:33;98939.03;;;4.70;100.00
9717;BME280;4897;43.570;27.832;2024-01-25T04:19:00;98946.03;;;4.71;100.00
9717;BME280;4897;43.570;27.832;2024-01-25T04:21:27;98922.59;;;4.51;100.00
9717;BME280;4897;43.570;27.832;2024-01-25T04:23:55;98927.50;;;4.57;100.00
9717;BME280;4897;43.570;27.832;2024-01-25T04:26:22;98953.81;;;4.60;100.00
9717;BME280;4897;43.570;27.832;2024-01-25T04:28:49;98938.88;;;4.45;100.00
9717;BME280;4897;43.570;27.832;2024-01-25T04:31:16;98946.47;;;4.37;100.00
9717;BME280;4897;43.570;27.832;2024-01-25T04:33:43;98955.38;;;4.36;100.00
9717;BME280;4897;43.570;27.832;2024-01-25T04:36:10;98958.59;;;4.27;100.00
9717;BME280;4897;43.570;27.832;2024-01-25T04:38:37;98937.16;;;4.17;100.00
9717;BME280;4897;43.570;27.832;2024-01-25T04:41:05;98904.34;;;4.05;100.00
9717;BME280;4897;43.570;27.832;2024-01-25T04:43:34;98914.28;;;4.02;100.00
9717;BME280;4897;43.570;27.832;2024-01-25T04:46:02;98967.28;;;4.29;100.00
9717;BME280;4897;43.570;27.832;2024-01-25T04:48:29;98962.28;;;4.24;100.00
9717;BME280;4897;43.570;27.832;2024-01-25T04:50:56;98964.91;;;4.24;100.00
9717;BME280;4897;43.570;27.832;2024-01-25T04:53:26;98967.66;;;4.23;100.00
9717;BME280;4897;43.570;27.832;2024-01-25T04:55:54;98953.97;;;4.16;100.00
9717;BME280;4897;43.570;27.832;2024-01-25T04:58:23;98959.63;;;4.24;100.00
9717;BME280;4897;43.570;27.832;2024-01-25T05:00:50;98952.72;;;4.22;100.00
9717;BME280;4897;43.570;27.832;2024-01-25T05:03:18;98941.38;;;4.20;100.00
9717;BME280;4897;43.570;27.832;2024-01-25T05:05:45;98937.16;;;4.17;100.00
9717;BME280;4897;43.570;27.832;2024-01-25T05:08:12;98958.22;;;4.19;100.00
9717;BME280;4897;43.570;27.832;2024-01-25T05:10:38;98975.78;;;4.20;100.00
9717;BME280;4897;43.570;27.832;2024-01-25T05:13:05;98947.94;;;4.00;100.00
9717;BME280;4897;43.570;27.832;2024-01-25T05:15:34;98961.41;;;4.10;100.00
9717;BME280;4897;43.570;27.832;2024-01-25T05:18:01;98973.72;;;4.11;100.00
9717;BME280;4897;43.570;27.832;2024-01-25T05:20:28;98975.22;;;4.00;100.00
9717;BME280;4897;43.570;27.832;2024-01-25T05:22:58;98973.53;;;3.99;100.00
9717;BME280;4897;43.570;27.832;2024-01-25T05:25:25;99011.22;;;4.03;100.00
9717;BME280;4897;43.570;27.832;2024-01-25T05:27:53;98992.59;;;3.90;100.00
9717;BME280;4897;43.570;27.832;2024-01-25T05:30:20;98981.44;;;3.85;100.00
9717;BME280;4897;43.570;27.832;2024-01-25T05:32:48;98991.81;;;3.88;100.00
9717;BME280;4897;43.570;27.832;2024-01-25T05:35:16;99010.72;;;3.82;100.00
9717;BME280;4897;43.570;27.832;2024-01-25T05:37:43;99006.75;;;3.75;100.00
9717;BME280;4897;43.570;27.832;2024-01-25T05:40:13;99004.53;;;3.68;100.00
9717;BME280;4897;43.570;27.832;2024-01-25T05:42:42;99015.19;;;3.52;100.00
9717;BME280;4897;43.570;27.832;2024-01-25T05:45:10;98993.66;;;3.44;100.00
9717;BME280;4897;43.570;27.832;2024-01-25T05:47:37;99015.44;;;3.48;100.00
9717;BME280;4897;43.570;27.832;2024-01-25T05:50:06;99000.31;;;3.36;100.00
9717;BME280;4897;43.570;27.832;2024-01-25T05:52:33;99015.06;;;3.40;100.00
9717;BME280;4897;43.570;27.832;2024-01-25T05:55:03;99004.66;;;3.37;100.00
9717;BME280;4897;43.570;27.832;2024-01-25T05:57:29;99014.69;;;3.46;100.00
9717;BME280;4897;43.570;27.832;2024-01-25T05:59:56;99001.38;;;3.47;100.00
9717;BME280;4897;43.570;27.832;2024-01-25T06:02:23;99017.13;;;3.49;100.00
9717;BME280;4897;43.570;27.832;2024-01-25T06:04:50;99019.13;;;3.45;100.00
9717;BME280;4897;43.570;27.832;2024-01-25T06:07:18;99014.56;;;3.33;100.00
9717;BME280;4897;43.570;27.832;2024-01-25T06:09:47;99011.31;;;3.28;100.00
9717;BME280;4897;43.570;27.832;2024-01-25T06:12:14;99034.16;;;3.29;100.00
9717;BME280;4897;43.570;27.832;2024-01-25T06:14:41;99017.31;;;3.16;100.00
9717;BME280;4897;43.570;27.832;2024-01-25T06:17:08;99039.88;;;3.21;100.00
9717;BME280;4897;43.570;27.832;2024-01-25T06:19:35;99045.44;;;3.17;100.00
9717;BME280;4897;43.570;27.832;2024-01-25T06:22:02;99032.31;;;3.15;100.00
9717;BME280;4897;43.570;27.832;2024-01-25T06:24:30;99030.56;;;3.30;100.00
9717;BME280;4897;43.570;27.832;2024-01-25T06:26:57;99030.41;;;3.33;100.00
9717;BME280;4897;43.570;27.832;2024-01-25T06:29:24;99030.81;;;3.41;100.00
9717;BME280;4897;43.570;27.832;2024-01-25T06:31:51;99034.84;;;3.33;100.00
9717;BME280;4897;43.570;27.832;2024-01-25T06:34:18;99034.75;;;3.34;100.00
9717;BME280;4897;43.570;27.832;2024-01-25T06:36:45;99003.84;;;3.05;100.00
9717;BME280;4897;43.570;27.832;2024-01-25T06:39:12;99007.94;;;3.10;100.00
9717;BME280;4897;43.570;27.832;2024-01-25T06:41:40;99015.44;;;3.18;100.00
9717;BME280;4897;43.570;27.832;2024-01-25T06:44:07;99016.63;;;3.12;100.00
9717;BME280;4897;43.570;27.832;2024-01-25T06:46:34;99029.59;;;3.17;100.00
9717;BME280;4897;43.570;27.832;2024-01-25T06:49:01;98994.41;;;3.01;100.00
9717;BME280;4897;43.570;27.832;2024-01-25T06:51:28;99020.34;;;3.24;100.00
9717;BME280;4897;43.570;27.832;2024-01-25T06:53:55;98993.63;;;3.14;100.00
9717;BME280;4897;43.570;27.832;2024-01-25T06:56:22;99008.59;;;3.30;100.00
9717;BME280;4897;43.570;27.832;2024-01-25T06:58:50;99017.44;;;3.44;100.00
9717;BME280;4897;43.570;27.832;2024-01-25T07:01:20;98991.53;;;3.35;100.00
9717;BME280;4897;43.570;27.832;2024-01-25T07:03:47;99003.75;;;3.52;100.00
9717;BME280;4897;43.570;27.832;2024-01-25T07:06:17;99015.03;;;3.69;100.00
9717;BME280;4897;43.570;27.832;2024-01-25T07:08:44;99032.09;;;3.64;100.00
9717;BME280;4897;43.570;27.832;2024-01-25T07:11:11;99009.59;;;3.86;100.00
9717;BME280;4897;43.570;27.832;2024-01-25T07:13:40;99011.78;;;3.94;100.00
9717;BME280;4897;43.570;27.832;2024-01-25T07:16:08;98998.84;;;3.89;100.00
9717;BME280;4897;43.570;27.832;2024-01-25T07:18:35;98965.09;;;3.79;100.00
9717;BME280;4897;43.570;27.832;2024-01-25T07:21:02;98989.94;;;3.90;100.00
9717;BME280;4897;43.570;27.832;2024-01-25T07:23:30;98910.59;;;3.62;100.00
9717;BME280;4897;43.570;27.832;2024-01-25T07:25:56;99004.50;;;4.12;100.00
9717;BME280;4897;43.570;27.832;2024-01-25T07:28:23;99014.00;;;4.30;100.00
9717;BME280;4897;43.570;27.832;2024-01-25T07:30:50;99005.47;;;4.39;100.00
9717;BME280;4897;43.570;27.832;2024-01-25T07:33:20;99001.22;;;4.50;100.00
9717;BME280;4897;43.570;27.832;2024-01-25T07:35:47;98989.38;;;4.56;100.00
9717;BME280;4897;43.570;27.832;2024-01-25T07:38:14;98997.28;;;4.70;100.00
9717;BME280;4897;43.570;27.832;2024-01-25T07:40:43;99000.34;;;4.91;100.00
9717;BME280;4897;43.570;27.832;2024-01-25T07:43:10;99006.56;;;5.04;100.00
9717;BME280;4897;43.570;27.832;2024-01-25T07:45:37;99006.66;;;5.29;100.00
9717;BME280;4897;43.570;27.832;2024-01-25T07:48:05;99000.16;;;5.59;100.00
9717;BME280;4897;43.570;27.832;2024-01-25T07:50:34;98997.94;;;5.53;100.00
9717;BME280;4897;43.570;27.832;2024-01-25T07:53:01;99003.09;;;5.42;100.00
9717;BME280;4897;43.570;27.832;2024-01-25T07:55:28;98988.25;;;5.13;100.00
9717;BME280;4897;43.570;27.832;2024-01-25T07:57:58;98978.72;;;5.11;100.00
9717;BME280;4897;43.570;27.832;2024-01-25T08:00:28;98970.13;;;5.07;100.00
9717;BME280;4897;43.570;27.832;2024-01-25T08:02:55;98952.09;;;5.00;100.00
9717;BME280;4897;43.570;27.832;2024-01-25T08:05:22;98985.66;;;5.26;100.00
9717;BME280;4897;43.570;27.832;2024-01-25T08:07:50;98969.97;;;5.23;100.00
9717;BME280;4897;43.570;27.832;2024-01-25T08:10:17;98984.19;;;5.34;100.00
9717;BME280;4897;43.570;27.832;2024-01-25T08:12:44;98973.00;;;5.43;100.00
9717;BME280;4897;43.570;27.832;2024-01-25T08:15:13;98984.09;;;5.75;100.00
9717;BME280;4897;43.570;27.832;2024-01-25T08:17:42;98974.69;;;5.96;100.00
9717;BME280;4897;43.570;27.832;2024-01-25T08:20:10;98983.59;;;6.33;100.00
9717;BME280;4897;43.570;27.832;2024-01-25T08:22:38;98988.56;;;6.50;100.00
9717;BME280;4897;43.570;27.832;2024-01-25T08:25:09;98981.47;;;6.74;100.00
9717;BME280;4897;43.570;27.832;2024-01-25T08:27:37;98969.09;;;6.98;100.00
9717;BME280;4897;43.570;27.832;2024-01-25T08:30:04;98966.25;;;7.12;100.00
9717;BME280;4897;43.570;27.832;2024-01-25T08:32:33;98979.91;;;7.43;100.00
9717;BME280;4897;43.570;27.832;2024-01-25T08:35:00;98971.50;;;7.49;100.00
9717;BME280;4897;43.570;27.832;2024-01-25T08:37:27;98976.09;;;7.47;100.00
9717;BME280;4897;43.570;27.832;2024-01-25T08:39:54;98979.41;;;7.61;100.00
9717;BME280;4897;43.570;27.832;2024-01-25T08:42:22;98970.69;;;7.70;100.00
9717;BME280;4897;43.570;27.832;2024-01-25T08:44:49;98969.41;;;7.87;100.00
9717;BME280;4897;43.570;27.832;2024-01-25T08:47:17;98954.94;;;8.02;100.00
9717;BME280;4897;43.570;27.832;2024-01-25T08:49:44;98976.78;;;8.29;100.00
9717;BME280;4897;43.570;27.832;2024-01-25T08:52:11;98977.50;;;8.42;100.00
9717;BME280;4897;43.570;27.832;2024-01-25T08:54:38;98976.38;;;8.23;100.00
9717;BME280;4897;43.570;27.832;2024-01-25T08:57:08;98996.66;;;8.01;100.00
9717;BME280;4897;43.570;27.832;2024-01-25T08:59:36;98993.75;;;7.93;100.00
9717;BME280;4897;43.570;27.832;2024-01-25T09:02:04;99001.03;;;8.02;100.00
9717;BME280;4897;43.570;27.832;2024-01-25T09:04:36;99000.47;;;8.21;100.00
9717;BME280;4897;43.570;27.832;2024-01-25T09:07:03;98993.88;;;8.49;100.00
9717;BME280;4897;43.570;27.832;2024-01-25T09:09:30;99000.75;;;8.29;100.00
9717;BME280;4897;43.570;27.832;2024-01-25T09:11:57;98935.72;;;8.43;100.00
9717;BME280;4897;43.570;27.832;2024-01-25T09:14:24;98866.06;;;8.58;100.00
9717;BME280;4897;43.570;27.832;2024-01-25T09:16:52;98981.66;;;9.43;100.00
9717;BME280;4897;43.570;27.832;2024-01-25T09:19:19;98987.31;;;9.29;100.00
9717;BME280;4897;43.570;27.832;2024-01-25T09:21:46;98901.94;;;10.11;100.00
9717;BME280;4897;43.570;27.832;2024-01-25T09:24:13;98979.22;;;10.94;100.00
9717;BME280;4897;43.570;27.832;2024-01-25T09:26:40;98972.00;;;11.72;100.00
9717;BME280;4897;43.570;27.832;2024-01-25T09:29:07;98972.13;;;11.42;100.00
9717;BME280;4897;43.570;27.832;2024-01-25T09:31:35;98969.97;;;11.26;100.00
9717;BME280;4897;43.570;27.832;2024-01-25T09:34:03;98973.97;;;12.55;100.00
9717;BME280;4897;43.570;27.832;2024-01-25T09:36:30;98971.09;;;12.93;100.00
9717;BME280;4897;43.570;27.832;2024-01-25T09:38:57;98978.41;;;12.37;100.00
9717;BME280;4897;43.570;27.832;2024-01-25T09:41:26;98977.47;;;11.42;100.00
9717;BME280;4897;43.570;27.832;2024-01-25T09:43:53;98955.72;;;10.58;100.00
9717;BME280;4897;43.570;27.832;2024-01-25T09:46:24;98981.31;;;10.51;100.00
9717;BME280;4897;43.570;27.832;2024-01-25T09:48:51;98962.25;;;11.52;100.00
9717;BME280;4897;43.570;27.832;2024-01-25T09:51:23;98947.75;;;11.26;100.00
9717;BME280;4897;43.570;27.832;2024-01-25T09:53:54;98944.59;;;10.53;100.00
9717;BME280;4897;43.570;27.832;2024-01-25T09:56:23;98989.63;;;9.22;100.00
9717;BME280;4897;43.570;27.832;2024-01-25T09:58:55;98952.94;;;8.28;100.00
9717;BME280;4897;43.570;27.832;2024-01-25T10:01:22;98950.53;;;7.79;100.00
9717;BME280;4897;43.570;27.832;2024-01-25T10:03:49;98954.00;;;7.68;100.00
9717;BME280;4897;43.570;27.832;2024-01-25T10:06:18;98970.22;;;7.65;100.00
9717;BME280;4897;43.570;27.832;2024-01-25T10:08:55;98950.28;;;7.71;100.00
9717;BME280;4897;43.570;27.832;2024-01-25T10:11:22;98951.28;;;7.92;100.00
9717;BME280;4897;43.570;27.832;2024-01-25T10:13:50;98948.38;;;7.84;100.00
9717;BME280;4897;43.570;27.832;2024-01-25T10:16:18;98946.44;;;7.97;100.00
9717;BME280;4897;43.570;27.832;2024-01-25T10:18:47;98952.19;;;8.37;100.00
9717;BME280;4897;43.570;27.832;2024-01-25T10:21:15;98947.84;;;8.47;100.00
9717;BME280;4897;43.570;27.832;2024-01-25T10:23:44;98871.66;;;8.00;100.00
9717;BME280;4897;43.570;27.832;2024-01-25T10:26:14;98941.41;;;8.49;100.00
9717;BME280;4897;43.570;27.832;2024-01-25T10:28:42;98942.38;;;8.37;100.00
9717;BME280;4897;43.570;27.832;2024-01-25T10:31:09;98944.06;;;8.60;100.00
9717;BME280;4897;43.570;27.832;2024-01-25T10:33:36;98917.69;;;9.32;100.00
9717;BME280;4897;43.570;27.832;2024-01-25T10:36:06;98940.16;;;9.50;100.00
9717;BME280;4897;43.570;27.832;2024-01-25T10:38:35;98943.78;;;8.97;100.00
9717;BME280;4897;43.570;27.832;2024-01-25T10:41:04;98948.31;;;8.63;100.00
9717;BME280;4897;43.570;27.832;2024-01-25T10:43:36;98944.28;;;8.79;100.00
9717;BME280;4897;43.570;27.832;2024-01-25T10:46:04;98926.22;;;8.72;100.00
9717;BME280;4897;43.570;27.832;2024-01-25T10:48:32;98942.22;;;9.26;100.00
9717;BME280;4897;43.570;27.832;2024-01-25T10:50:59;98951.22;;;9.45;100.00
9717;BME280;4897;43.570;27.832;2024-01-25T10:53:29;98924.09;;;8.98;100.00
9717;BME280;4897;43.570;27.832;2024-01-25T10:56:01;98957.63;;;8.79;100.00
9717;BME280;4897;43.570;27.832;2024-01-25T10:58:30;98947.94;;;8.45;100.00
9717;BME280;4897;43.570;27.832;2024-01-25T11:00:59;98935.22;;;9.14;100.00
9717;BME280;4897;43.570;27.832;2024-01-25T11:03:26;98935.72;;;9.08;100.00
9717;BME280;4897;43.570;27.832;2024-01-25T11:05:55;98930.22;;;8.77;100.00
9717;BME280;4897;43.570;27.832;2024-01-25T11:08:24;98927.06;;;8.83;100.00
9717;BME280;4897;43.570;27.832;2024-01-25T11:10:51;98933.03;;;8.43;100.00
9717;BME280;4897;43.570;27.832;2024-01-25T11:13:23;98948.06;;;8.22;100.00
9717;BME280;4897;43.570;27.832;2024-01-25T11:15:52;98922.50;;;8.19;100.00
9717;BME280;4897;43.570;27.832;2024-01-25T11:18:25;98920.56;;;8.10;100.00
9717;BME280;4897;43.570;27.832;2024-01-25T11:20:52;98926.38;;;8.04;100.00
9717;BME280;4897;43.570;27.832;2024-01-25T11:23:19;98915.66;;;7.71;100.00
9717;BME280;4897;43.570;27.832;2024-01-25T11:25:47;98917.63;;;7.80;100.00
9717;BME280;4897;43.570;27.832;2024-01-25T11:28:15;98913.75;;;7.95;100.00
9717;BME280;4897;43.570;27.832;2024-01-25T11:30:46;98896.34;;;7.80;100.00
9717;BME280;4897;43.570;27.832;2024-01-25T11:33:13;98914.75;;;8.05;100.00
9717;BME280;4897;43.570;27.832;2024-01-25T11:35:42;98924.94;;;8.11;100.00
9717;BME280;4897;43.570;27.832;2024-01-25T11:38:09;98907.25;;;8.10;100.00
9717;BME280;4897;43.570;27.832;2024-01-25T11:40:36;98922.00;;;8.14;100.00
9717;BME280;4897;43.570;27.832;2024-01-25T11:43:06;98917.19;;;8.19;100.00
9717;BME280;4897;43.570;27.832;2024-01-25T11:45:37;98917.41;;;8.16;100.00
9717;BME280;4897;43.570;27.832;2024-01-25T11:48:08;98924.31;;;7.96;100.00
9717;BME280;4897;43.570;27.832;2024-01-25T11:50:35;98919.28;;;7.70;100.00
9717;BME280;4897;43.570;27.832;2024-01-25T11:53:03;98911.22;;;7.37;100.00
9717;BME280;4897;43.570;27.832;2024-01-25T11:55:30;98928.97;;;7.25;100.00
9717;BME280;4897;43.570;27.832;2024-01-25T11:57:57;98871.84;;;7.07;100.00
9717;BME280;4897;43.570;27.832;2024-01-25T12:00:24;98907.59;;;7.03;100.00
9717;BME280;4897;43.570;27.832;2024-01-25T12:02:51;98897.91;;;6.78;100.00
9717;BME280;4897;43.570;27.832;2024-01-25T12:05:19;98882.44;;;6.72;100.00
9717;BME280;4897;43.570;27.832;2024-01-25T12:07:47;98915.41;;;6.93;100.00
9717;BME280;4897;43.570;27.832;2024-01-25T12:10:17;98907.88;;;6.87;100.00
9717;BME280;4897;43.570;27.832;2024-01-25T12:12:44;98905.16;;;6.76;100.00
9717;BME280;4897;43.570;27.832;2024-01-25T12:15:11;98910.41;;;6.89;100.00
9717;BME280;4897;43.570;27.832;2024-01-25T12:17:38;98912.06;;;7.02;100.00
9717;BME280;4897;43.570;27.832;2024-01-25T12:20:06;98915.50;;;7.15;100.00
9717;BME280;4897;43.570;27.832;2024-01-25T12:22:36;98928.41;;;7.09;100.00
9717;BME280;4897;43.570;27.832;2024-01-25T12:25:07;98926.84;;;7.06;100.00
9717;BME280;4897;43.570;27.832;2024-01-25T12:27:36;98918.13;;;7.04;100.00
9717;BME280;4897;43.570;27.832;2024-01-25T12:30:04;98935.41;;;7.10;100.00
9717;BME280;4897;43.570;27.832;2024-01-25T12:32:32;98909.44;;;7.13;100.00
9717;BME280;4897;43.570;27.832;2024-01-25T12:35:00;98893.41;;;6.91;100.00
9717;BME280;4897;43.570;27.832;2024-01-25T12:37:27;98924.50;;;7.25;100.00
9717;BME280;4897;43.570;27.832;2024-01-25T12:39:59;98916.59;;;6.89;100.00
9717;BME280;4897;43.570;27.832;2024-01-25T12:42:28;98906.50;;;7.05;100.00
9717;BME280;4897;43.570;27.832;2024-01-25T12:44:56;98911.94;;;7.28;100.00
9717;BME280;4897;43.570;27.832;2024-01-25T12:47:23;98910.41;;;7.36;100.00
9717;BME280;4897;43.570;27.832;2024-01-25T12:49:53;98930.22;;;7.43;100.00
9717;BME280;4897;43.570;27.832;2024-01-25T12:52:21;98918.50;;;7.46;100.00
9717;BME280;4897;43.570;27.832;2024-01-25T12:54:47;98931.41;;;7.39;100.00
9717;BME280;4897;43.570;27.832;2024-01-25T12:57:14;98903.63;;;7.32;100.00
9717;BME280;4897;43.570;27.832;2024-01-25T12:59:41;98890.09;;;7.11;100.00
9717;BME280;4897;43.570;27.832;2024-01-25T13:02:10;98892.72;;;7.00;100.00
9717;BME280;4897;43.570;27.832;2024-01-25T13:04:38;98904.03;;;6.91;100.00
9717;BME280;4897;43.570;27.832;2024-01-25T13:07:05;98909.44;;;7.13;100.00
9717;BME280;4897;43.570;27.832;2024-01-25T13:09:32;98823.75;;;6.75;100.00
9717;BME280;4897;43.570;27.832;2024-01-25T13:12:02;98910.09;;;7.28;100.00